createdAt,value
2022-11-04T00:02:06.676Z,3.05
2022-11-04T00:04:52.040Z,2.92
2022-11-04T00:07:56.017Z,2.53
2022-11-04T00:11:00.092Z,4.13
2022-11-04T00:13:46.625Z,2.10
2022-11-04T00:16:50.532Z,2.10
2022-11-04T00:19:54.309Z,2.72
2022-11-04T00:23:01.003Z,2.33
2022-11-04T00:26:04.784Z,2.28
2022-11-04T00:28:52.898Z,2.05
2022-11-04T00:31:56.855Z,4.00
2022-11-04T00:34:42.020Z,3.28
2022-11-04T00:37:27.544Z,3.33
2022-11-04T00:40:15.738Z,6.00
2022-11-04T00:43:00.853Z,5.10
2022-11-04T00:45:46.495Z,4.95
2022-11-04T00:48:31.695Z,3.88
2022-11-04T00:51:17.203Z,2.25
2022-11-04T00:54:03.059Z,2.03
2022-11-04T00:56:51.061Z,3.25
2022-11-04T00:59:36.425Z,3.20
2022-11-04T01:02:21.844Z,1.92
2022-11-04T01:05:07.916Z,2.25
2022-11-04T01:07:53.518Z,3.00
2022-11-04T01:10:44.602Z,2.95
2022-11-04T01:13:30.106Z,2.90
2022-11-04T01:16:15.718Z,2.00
2022-11-04T01:19:01.419Z,2.45
2022-11-04T01:21:49.995Z,2.65
2022-11-04T01:24:35.686Z,3.10
2022-11-04T01:27:21.091Z,2.22
2022-11-04T01:30:07.603Z,1.73
2022-11-04T01:32:52.917Z,2.20
2022-11-04T01:35:38.511Z,2.35
2022-11-04T01:38:24.233Z,2.58
2022-11-04T01:41:18.160Z,2.97
2022-11-04T01:44:25.336Z,3.38
2022-11-04T01:47:30.718Z,3.33
2022-11-04T01:50:26.254Z,2.40
2022-11-04T01:53:37.375Z,1.83
2022-11-04T01:56:25.953Z,2.97
2022-11-04T01:59:34.207Z,3.15
2022-11-04T02:02:19.420Z,4.57
2022-11-04T02:05:05.327Z,2.90
2022-11-04T02:07:54.437Z,4.47
2022-11-04T02:10:46.102Z,2.70
2022-11-04T02:13:34.591Z,3.42
2022-11-04T02:16:38.988Z,2.00
2022-11-04T02:20:07.234Z,3.80
2022-11-04T02:23:20.683Z,2.95
2022-11-04T02:26:48.228Z,2.45
2022-11-04T02:29:46.107Z,1.95
2022-11-04T02:32:34.052Z,2.55
2022-11-04T02:35:43.839Z,1.50
2022-11-04T02:38:54.554Z,1.85
2022-11-04T02:41:43.055Z,2.75
2022-11-04T02:44:41.110Z,2.90
2022-11-04T02:47:30.535Z,3.03
2022-11-04T02:50:53.743Z,1.23
2022-11-04T02:56:29.727Z,1.65
2022-11-04T02:59:21.970Z,1.55
2022-11-04T03:02:12.505Z,2.47
2022-11-04T03:04:59.300Z,3.22
2022-11-04T03:07:47.663Z,3.08
2022-11-04T03:10:41.890Z,2.15
2022-11-04T03:13:35.747Z,2.97
2022-11-04T03:16:32.388Z,2.20
2022-11-04T03:19:23.280Z,1.67
2022-11-04T03:22:14.660Z,2.50
2022-11-04T03:25:01.981Z,1.73
2022-11-04T03:28:14.942Z,1.55
2022-11-04T03:31:04.430Z,1.92
2022-11-04T03:33:52.107Z,1.88
2022-11-04T03:36:37.631Z,1.98
2022-11-04T03:39:23.410Z,2.00
2022-11-04T03:42:21.787Z,2.15
2022-11-04T03:45:07.663Z,2.42
2022-11-04T03:47:53.282Z,1.20
2022-11-04T03:50:47.797Z,1.48
2022-11-04T03:53:33.572Z,1.50
2022-11-04T03:56:51.229Z,1.70
2022-11-04T03:59:51.620Z,2.13
2022-11-04T04:03:10.170Z,1.33
2022-11-04T04:06:16.046Z,2.05
2022-11-04T04:09:13.142Z,1.88
2022-11-04T04:12:07.747Z,1.80
2022-11-04T04:14:56.905Z,2.72
2022-11-04T04:18:01.903Z,1.60
2022-11-04T04:20:49.627Z,1.63
2022-11-04T04:23:54.547Z,2.40
2022-11-04T04:26:59.750Z,1.67
2022-11-04T04:29:46.409Z,2.55
2022-11-04T04:32:37.215Z,1.70
2022-11-04T04:35:42.471Z,1.38
2022-11-04T04:38:48.707Z,1.98
2022-11-04T04:41:52.663Z,1.60
2022-11-04T04:45:01.236Z,2.33
2022-11-04T04:47:47.046Z,2.08
2022-11-04T04:50:37.915Z,1.73
2022-11-04T04:53:23.577Z,1.80
2022-11-04T04:56:09.018Z,1.60
2022-11-04T04:58:54.768Z,2.30
2022-11-04T05:01:40.421Z,1.63
2022-11-04T05:04:25.798Z,2.42
2022-11-04T05:07:11.465Z,1.92
2022-11-04T05:09:56.722Z,2.10
2022-11-04T05:13:01.038Z,1.80
2022-11-04T05:15:46.754Z,1.92
2022-11-04T05:18:32.539Z,1.40
2022-11-04T05:21:18.178Z,1.90
2022-11-04T05:24:03.465Z,2.08
2022-11-04T05:26:49.387Z,3.08
2022-11-04T05:29:35.327Z,1.63
2022-11-04T05:32:20.559Z,1.42
2022-11-04T05:35:06.477Z,2.35
2022-11-04T05:37:51.915Z,1.63
2022-11-04T05:40:37.358Z,1.77
2022-11-04T05:43:22.507Z,3.15
2022-11-04T05:46:07.879Z,2.55
2022-11-04T05:48:53.695Z,1.85
2022-11-04T05:51:39.408Z,1.27
2022-11-04T05:54:25.342Z,1.63
2022-11-04T05:57:11.095Z,1.95
2022-11-04T05:59:56.652Z,2.10
2022-11-04T06:02:42.834Z,2.78
2022-11-04T06:05:28.962Z,3.13
2022-11-04T06:08:14.787Z,3.65
2022-11-04T06:11:00.469Z,3.33
2022-11-04T06:13:46.184Z,3.03
2022-11-04T06:16:31.808Z,4.28
2022-11-04T06:19:17.375Z,5.90
2022-11-04T06:22:03.914Z,4.20
2022-11-04T06:24:49.747Z,5.40
2022-11-04T06:27:35.268Z,8.07
2022-11-04T06:30:20.543Z,6.20
2022-11-04T06:33:06.260Z,6.72
2022-11-04T06:35:52.207Z,8.68
2022-11-04T06:38:38.447Z,8.50
2022-11-04T06:41:23.913Z,8.60
2022-11-04T06:44:09.089Z,8.95
2022-11-04T06:46:54.881Z,10.35
2022-11-04T06:49:40.499Z,9.82
2022-11-04T06:52:26.218Z,10.00
2022-11-04T06:55:11.662Z,11.00
2022-11-04T06:57:57.196Z,12.30
2022-11-04T07:00:42.771Z,11.55
2022-11-04T07:03:28.076Z,13.45
2022-11-04T07:06:13.529Z,11.95
2022-11-04T07:09:00.860Z,12.68
2022-11-04T07:11:46.330Z,13.52
2022-11-04T07:14:31.762Z,14.25
2022-11-04T07:17:17.082Z,13.50
2022-11-04T07:20:03.520Z,13.68
2022-11-04T07:22:48.883Z,13.73
2022-11-04T07:25:34.432Z,14.18
2022-11-04T07:28:20.753Z,14.07
2022-11-04T07:31:08.675Z,13.02
2022-11-04T07:33:54.055Z,12.32
2022-11-04T07:36:39.764Z,14.27
2022-11-04T07:39:25.154Z,13.23
2022-11-04T07:42:10.822Z,12.98
2022-11-04T07:44:58.222Z,13.77
2022-11-04T07:47:43.750Z,13.07
2022-11-04T07:50:29.185Z,14.48
2022-11-04T07:53:14.392Z,12.82
2022-11-04T07:56:07.288Z,11.43
2022-11-04T07:58:53.467Z,12.70
2022-11-04T08:01:39.270Z,12.48
2022-11-04T08:04:24.952Z,13.32
2022-11-04T08:07:09.999Z,12.40
2022-11-04T08:09:55.306Z,12.35
2022-11-04T08:12:40.664Z,11.10
2022-11-04T08:15:26.075Z,9.65
2022-11-04T08:18:11.334Z,10.30
2022-11-04T08:20:56.714Z,12.15
2022-11-04T08:23:42.331Z,11.18
2022-11-04T08:26:27.515Z,9.82
2022-11-04T08:29:13.030Z,10.93
2022-11-04T08:31:58.193Z,9.55
2022-11-04T08:34:43.707Z,9.90
2022-11-04T08:37:29.266Z,9.82
2022-11-04T08:40:14.762Z,10.00
2022-11-04T08:43:00.370Z,9.60
2022-11-04T08:45:46.677Z,10.05
2022-11-04T08:48:34.009Z,9.40
2022-11-04T08:51:25.067Z,10.93
2022-11-04T08:54:10.845Z,11.98
2022-11-04T08:56:56.453Z,10.20
2022-11-04T08:59:41.810Z,12.20
2022-11-04T09:02:27.253Z,12.15
2022-11-04T09:05:15.016Z,12.52
2022-11-04T09:08:01.796Z,10.70
2022-11-04T09:10:48.116Z,11.75
2022-11-04T09:13:38.357Z,10.30
2022-11-04T09:16:25.027Z,11.40
2022-11-04T09:19:10.328Z,10.75
2022-11-04T09:21:55.947Z,11.02
2022-11-04T09:24:40.967Z,9.77
2022-11-04T09:27:26.613Z,11.05
2022-11-04T09:30:12.398Z,13.23
2022-11-04T09:32:58.236Z,11.48
2022-11-04T09:35:43.695Z,9.43
2022-11-04T09:38:29.075Z,9.43
2022-11-04T09:41:39.321Z,10.85
2022-11-04T09:44:31.352Z,9.40
2022-11-04T09:47:21.650Z,9.80
2022-11-04T09:50:12.198Z,9.73
2022-11-04T09:53:05.222Z,9.35
2022-11-04T09:55:58.347Z,9.25
2022-11-04T09:58:43.798Z,8.43
2022-11-04T10:01:57.137Z,9.85
2022-11-04T10:07:52.618Z,8.50
2022-11-04T10:11:05.322Z,9.25
2022-11-04T10:17:25.204Z,7.95
2022-11-04T10:20:20.568Z,7.82
2022-11-04T10:23:42.799Z,7.22
2022-11-04T10:26:36.708Z,7.95
2022-11-04T10:29:34.119Z,7.82
2022-11-04T10:32:31.931Z,7.47
2022-11-04T10:35:42.412Z,6.80
2022-11-04T10:38:51.270Z,7.28
2022-11-04T10:41:40.640Z,5.70
2022-11-04T10:44:30.226Z,5.82
2022-11-04T10:47:33.037Z,7.63
2022-11-04T10:50:43.410Z,5.43
2022-11-04T10:53:31.095Z,6.20
2022-11-04T10:56:33.653Z,6.82
2022-11-04T10:59:29.324Z,5.57
2022-11-04T11:02:14.877Z,6.25
2022-11-04T11:05:18.788Z,5.07
2022-11-04T11:08:03.960Z,5.40
2022-11-04T11:10:52.909Z,6.55
2022-11-04T11:13:40.962Z,5.97
2022-11-04T11:16:27.550Z,4.75
2022-11-04T11:19:17.590Z,5.50
2022-11-04T11:22:03.140Z,5.47
2022-11-04T11:24:48.597Z,5.70
2022-11-04T11:27:33.862Z,5.43
2022-11-04T11:30:32.021Z,4.70
2022-11-04T11:33:20.964Z,6.05
2022-11-04T11:36:31.552Z,5.75
2022-11-04T11:39:21.952Z,5.55
2022-11-04T11:42:16.106Z,3.50
2022-11-04T11:45:04.998Z,4.07
2022-11-04T11:47:55.021Z,4.13
2022-11-04T11:50:58.603Z,4.03
2022-11-04T11:54:15.420Z,3.53
2022-11-04T11:57:14.241Z,4.10
2022-11-04T12:10:50.564Z,5.88
2022-11-04T12:13:43.568Z,4.25
2022-11-04T12:16:39.224Z,4.05
2022-11-04T12:19:50.135Z,3.70
2022-11-04T12:22:54.960Z,4.40
2022-11-04T12:26:00.840Z,3.55
2022-11-04T12:29:12.007Z,3.42
2022-11-04T12:32:22.668Z,2.40
2022-11-04T12:35:44.998Z,3.15
2022-11-04T12:38:36.600Z,2.53
2022-11-04T12:42:14.402Z,1.92
2022-11-04T12:45:28.203Z,2.92
2022-11-04T12:48:35.865Z,2.97
2022-11-04T12:51:32.876Z,2.22
2022-11-04T12:55:00.892Z,2.50
2022-11-04T12:57:56.619Z,2.88
2022-11-04T13:00:45.292Z,2.90
2022-11-04T13:03:40.332Z,3.05
2022-11-04T13:06:37.706Z,3.40
2022-11-04T13:09:34.371Z,3.90
2022-11-04T13:12:38.053Z,2.50
2022-11-04T13:15:26.762Z,3.63
2022-11-04T13:18:20.305Z,2.55
2022-11-04T13:21:16.715Z,1.90
2022-11-04T13:24:05.852Z,3.35
2022-11-04T13:26:52.119Z,2.03
2022-11-04T13:29:39.815Z,2.30
2022-11-04T13:32:36.474Z,3.72
2022-11-04T13:35:48.080Z,2.92
2022-11-04T13:38:53.891Z,1.95
2022-11-04T13:42:08.800Z,2.33
2022-11-04T13:44:59.463Z,3.00
2022-11-04T13:47:50.468Z,2.20
2022-11-04T13:50:39.609Z,2.63
2022-11-04T13:53:55.004Z,3.50
2022-11-04T13:56:41.825Z,2.20
2022-11-04T13:59:28.947Z,2.90
2022-11-04T14:02:14.428Z,3.25
2022-11-04T14:05:29.531Z,2.40
2022-11-04T14:08:16.167Z,2.60
2022-11-04T14:11:08.454Z,2.13
2022-11-04T14:14:03.764Z,2.65
2022-11-04T14:16:48.969Z,2.58
2022-11-04T14:19:56.047Z,1.95
2022-11-04T14:22:44.499Z,2.75
2022-11-04T14:25:40.082Z,3.05
2022-11-04T14:28:30.114Z,2.95
2022-11-04T14:31:38.275Z,3.25
2022-11-04T14:34:29.803Z,4.07
2022-11-04T14:37:26.055Z,3.67
2022-11-04T14:40:25.429Z,5.50
2022-11-04T14:43:33.339Z,2.90
2022-11-04T14:46:24.827Z,3.50
2022-11-04T14:49:40.415Z,2.30
2022-11-04T14:52:32.567Z,3.08
2022-11-04T14:55:21.477Z,3.55
2022-11-04T14:58:27.989Z,3.70
2022-11-04T15:01:15.632Z,3.15
2022-11-04T15:04:12.803Z,4.13
2022-11-04T15:07:01.238Z,3.72
2022-11-04T15:09:50.094Z,3.45
2022-11-04T15:12:54.559Z,3.35
2022-11-04T15:15:44.414Z,2.95
2022-11-04T15:18:30.305Z,4.10
2022-11-04T15:21:16.155Z,3.42
2022-11-04T15:24:01.609Z,4.07
2022-11-04T15:26:52.412Z,3.15
2022-11-04T15:29:38.220Z,4.72
2022-11-04T15:32:24.128Z,4.43
2022-11-04T15:35:12.916Z,4.20
2022-11-04T15:38:01.197Z,4.35
2022-11-04T15:40:46.614Z,4.18
2022-11-04T15:43:31.678Z,6.00
2022-11-04T15:46:18.623Z,3.20
2022-11-04T15:49:06.598Z,3.92
2022-11-04T15:51:55.826Z,3.70
2022-11-04T15:54:45.240Z,4.50
2022-11-04T15:57:40.722Z,3.20
2022-11-04T16:00:30.355Z,7.57
2022-11-04T16:03:19.530Z,5.93
2022-11-04T16:06:07.085Z,3.13
2022-11-04T16:09:05.899Z,4.53
2022-11-04T16:12:04.543Z,4.40
2022-11-04T16:14:52.154Z,4.85
2022-11-04T16:17:44.229Z,6.90
2022-11-04T16:20:30.991Z,4.80
2022-11-04T16:23:23.457Z,4.05
2022-11-04T16:26:08.886Z,6.40
2022-11-04T16:28:57.004Z,4.45
2022-11-04T16:31:42.090Z,3.92
2022-11-04T16:34:27.507Z,4.50
2022-11-04T16:37:13.036Z,4.68
2022-11-04T16:39:58.414Z,8.20
2022-11-04T16:42:45.640Z,5.20
2022-11-04T16:45:36.849Z,4.97
2022-11-04T16:48:24.577Z,4.25
2022-11-04T16:51:21.411Z,5.85
2022-11-04T16:54:06.788Z,4.13
2022-11-04T16:56:54.434Z,5.25
2022-11-04T16:59:40.596Z,4.53
2022-11-04T17:02:31.195Z,4.45
2022-11-04T17:05:17.883Z,4.45
2022-11-04T17:08:06.243Z,8.30
2022-11-04T17:10:52.448Z,5.88
2022-11-04T17:13:38.113Z,4.82
2022-11-04T17:16:23.410Z,5.78
2022-11-04T17:19:14.366Z,4.22
2022-11-04T17:22:02.653Z,4.97
2022-11-04T17:24:48.366Z,4.32
2022-11-04T17:27:33.530Z,7.05
2022-11-04T17:30:20.169Z,3.60
2022-11-04T17:33:06.751Z,4.03
2022-11-04T17:35:52.197Z,5.78
2022-11-04T17:38:37.651Z,5.60
2022-11-04T17:41:41.775Z,4.50
2022-11-04T17:44:27.199Z,4.97
2022-11-04T17:47:12.444Z,3.03
2022-11-04T17:49:57.858Z,3.42
2022-11-04T17:52:44.023Z,2.70
2022-11-04T17:55:29.019Z,3.42
2022-11-04T17:58:14.568Z,2.80
2022-11-04T18:01:05.622Z,4.95
2022-11-04T18:03:53.446Z,2.95
2022-11-04T18:06:39.750Z,3.78
2022-11-04T18:09:25.280Z,3.47
2022-11-04T18:12:29.072Z,3.25
2022-11-04T18:15:17.138Z,3.20
2022-11-04T18:18:02.463Z,4.32
2022-11-04T18:20:48.618Z,3.63
2022-11-04T18:23:34.360Z,4.72
2022-11-04T18:26:19.750Z,2.38
2022-11-04T18:29:05.815Z,5.45
2022-11-04T18:31:51.681Z,4.63
2022-11-04T18:34:36.916Z,4.78
2022-11-04T18:37:23.117Z,4.57
2022-11-04T18:40:08.996Z,5.88
2022-11-04T18:42:54.418Z,7.13
2022-11-04T18:45:39.630Z,4.65
2022-11-04T18:48:25.324Z,5.57
2022-11-04T18:51:13.404Z,4.10
2022-11-04T18:53:58.855Z,5.30
2022-11-04T18:56:44.313Z,6.97
2022-11-04T18:59:30.024Z,5.97
2022-11-04T19:02:23.373Z,6.45
2022-11-04T19:05:10.023Z,5.18
2022-11-04T19:07:55.168Z,4.75
2022-11-04T19:10:58.007Z,5.35
2022-11-04T19:13:53.729Z,6.05
2022-11-04T19:16:39.188Z,4.35
2022-11-04T19:19:24.415Z,7.93
2022-11-04T19:22:10.437Z,6.03
2022-11-04T19:24:55.888Z,3.83
2022-11-04T19:27:41.345Z,5.30
2022-11-04T19:30:26.842Z,4.88
2022-11-04T19:33:12.311Z,4.00
2022-11-04T19:35:58.807Z,4.25
2022-11-04T19:38:44.188Z,4.65
2022-11-04T19:41:48.012Z,4.57
2022-11-04T19:44:33.488Z,3.92
2022-11-04T19:47:18.776Z,5.72
2022-11-04T19:50:04.546Z,6.03
2022-11-04T19:52:49.715Z,5.03
2022-11-04T19:55:35.806Z,8.05
2022-11-04T19:58:22.994Z,4.38
2022-11-04T20:01:09.419Z,6.38
2022-11-04T20:03:55.157Z,6.20
2022-11-04T20:06:40.589Z,5.70
2022-11-04T20:09:26.004Z,5.95
2022-11-04T20:12:30.216Z,5.88
2022-11-04T20:15:15.842Z,7.18
2022-11-04T20:18:01.720Z,7.95
2022-11-04T20:20:47.060Z,8.27
2022-11-04T20:23:32.458Z,9.48
2022-11-04T20:26:20.993Z,12.05
2022-11-04T20:29:06.671Z,11.27
2022-11-04T20:31:52.167Z,10.82
2022-11-04T20:34:37.654Z,10.07
2022-11-04T20:37:23.315Z,12.07
2022-11-04T20:40:09.228Z,9.45
2022-11-04T20:42:54.585Z,11.32
2022-11-04T20:45:39.971Z,10.68
2022-11-04T20:48:26.070Z,9.07
2022-11-04T20:51:14.326Z,10.18
2022-11-04T20:54:01.961Z,12.15
2022-11-04T20:56:47.387Z,10.90
2022-11-04T20:59:32.660Z,10.02
2022-11-04T21:02:18.148Z,10.02
2022-11-04T21:05:03.788Z,12.10
2022-11-04T21:07:49.318Z,10.82
2022-11-04T21:10:36.917Z,11.23
2022-11-04T21:13:22.724Z,13.25
2022-11-04T21:16:08.290Z,13.40
2022-11-04T21:18:54.459Z,13.30
2022-11-04T21:21:42.179Z,12.55
2022-11-04T21:24:27.561Z,12.40
2022-11-04T21:27:13.241Z,11.55
2022-11-04T21:29:58.779Z,11.23
2022-11-04T21:32:44.291Z,12.45
2022-11-04T21:35:30.097Z,10.57
2022-11-04T21:38:17.379Z,10.88
2022-11-04T21:41:12.106Z,11.73
2022-11-04T21:43:59.347Z,9.60
2022-11-04T21:46:44.835Z,9.60
2022-11-04T21:49:30.353Z,9.10
2022-11-04T21:52:15.795Z,11.80
2022-11-04T21:55:01.334Z,8.75
2022-11-04T21:57:46.803Z,7.45
2022-11-04T22:00:32.296Z,7.35
2022-11-04T22:03:17.886Z,4.90
2022-11-04T22:06:11.899Z,4.65
2022-11-04T22:08:57.368Z,4.47
2022-11-04T22:11:42.945Z,4.35
2022-11-04T22:14:29.437Z,3.78
2022-11-04T22:17:14.998Z,3.83
2022-11-04T22:20:00.842Z,3.90
2022-11-04T22:22:46.629Z,3.47
2022-11-04T22:25:32.080Z,3.55
2022-11-04T22:28:19.230Z,3.78
2022-11-04T22:31:10.414Z,3.17
2022-11-04T22:33:56.363Z,3.13
2022-11-04T22:36:42.222Z,4.03
2022-11-04T22:39:28.085Z,4.63
2022-11-04T22:42:13.210Z,4.32
2022-11-04T22:44:58.761Z,4.70
2022-11-04T22:47:44.314Z,3.40
2022-11-04T22:50:30.150Z,3.47
2022-11-04T22:53:16.064Z,4.20
2022-11-04T22:56:02.651Z,3.72
2022-11-04T22:58:48.115Z,3.45
2022-11-04T23:01:34.348Z,3.60
2022-11-04T23:04:19.823Z,3.92
2022-11-04T23:07:05.241Z,4.63
2022-11-04T23:10:09.385Z,5.13
2022-11-04T23:13:13.113Z,3.85
2022-11-04T23:16:17.806Z,2.92
2022-11-04T23:19:03.715Z,2.17
2022-11-04T23:22:07.615Z,2.90
2022-11-04T23:25:06.220Z,3.08
2022-11-04T23:28:12.589Z,2.35
2022-11-04T23:30:59.417Z,2.97
2022-11-04T23:34:03.146Z,2.30
2022-11-04T23:37:06.985Z,3.15
2022-11-04T23:39:52.555Z,3.25
2022-11-04T23:42:38.304Z,2.53
2022-11-04T23:45:43.435Z,2.38
2022-11-04T23:48:47.412Z,2.72
2022-11-04T23:51:51.226Z,2.28
2022-11-04T23:54:55.451Z,2.67
2022-11-04T23:57:59.518Z,3.63
